createdAt,value
2017-10-26T00:01:08.468Z,0
2017-10-26T00:02:21.215Z,0
2017-10-26T00:03:33.990Z,0
2017-10-26T00:04:46.731Z,0
2017-10-26T00:06:00.103Z,0
2017-10-26T00:07:13.810Z,0
2017-10-26T00:08:26.535Z,0
2017-10-26T00:09:39.287Z,0
2017-10-26T00:10:52.573Z,0
2017-10-26T00:12:05.864Z,0
2017-10-26T00:13:19.166Z,0
2017-10-26T00:14:32.424Z,0
2017-10-26T00:15:45.206Z,0
2017-10-26T00:16:57.992Z,0
2017-10-26T00:18:10.251Z,0
2017-10-26T00:19:22.973Z,0
2017-10-26T00:20:35.192Z,0
2017-10-26T00:21:48.122Z,0
2017-10-26T00:23:01.679Z,0
2017-10-26T00:24:15.192Z,0
2017-10-26T00:25:27.983Z,0
2017-10-26T00:26:40.737Z,0
2017-10-26T00:27:52.943Z,0
2017-10-26T00:29:05.274Z,0
2017-10-26T00:30:17.462Z,0
2017-10-26T00:31:30.738Z,0
2017-10-26T00:32:44.048Z,0
2017-10-26T00:33:56.270Z,0
2017-10-26T00:35:09.601Z,0
2017-10-26T00:36:22.379Z,0
2017-10-26T00:37:35.149Z,0
2017-10-26T00:38:47.387Z,0
2017-10-26T00:40:00.861Z,0
2017-10-26T00:41:14.095Z,0
2017-10-26T00:42:26.842Z,0
2017-10-26T00:43:39.587Z,0
2017-10-26T00:44:52.319Z,0
2017-10-26T00:46:05.397Z,0
2017-10-26T00:47:18.308Z,0
2017-10-26T00:48:30.522Z,0
2017-10-26T00:49:43.751Z,0
2017-10-26T00:50:57.032Z,0
2017-10-26T00:52:10.511Z,0
2017-10-26T00:53:23.799Z,0
2017-10-26T00:54:36.526Z,0
2017-10-26T00:55:50.387Z,0
2017-10-26T00:57:03.453Z,0
2017-10-26T00:58:16.802Z,0
2017-10-26T00:59:29.098Z,0
2017-10-26T01:00:41.871Z,0
2017-10-26T01:01:55.112Z,0
2017-10-26T01:03:07.352Z,0
2017-10-26T01:04:20.551Z,0
2017-10-26T01:05:33.926Z,0
2017-10-26T01:06:46.405Z,0
2017-10-26T01:07:59.212Z,0
2017-10-26T01:09:11.433Z,0
2017-10-26T01:10:23.642Z,0
2017-10-26T01:11:36.917Z,0
2017-10-26T01:12:49.691Z,0
2017-10-26T01:14:02.529Z,0
2017-10-26T01:15:15.804Z,0
2017-10-26T01:16:28.051Z,0
2017-10-26T01:17:41.317Z,0
2017-10-26T01:18:54.663Z,0
2017-10-26T01:20:08.082Z,0
2017-10-26T01:21:21.377Z,0
2017-10-26T01:22:34.668Z,0
2017-10-26T01:23:46.865Z,0
2017-10-26T01:24:59.591Z,0
2017-10-26T01:26:12.872Z,0
2017-10-26T01:27:26.146Z,0
2017-10-26T01:28:39.411Z,0
2017-10-26T01:29:53.480Z,0
2017-10-26T01:31:06.649Z,0
2017-10-26T01:32:19.696Z,0
2017-10-26T01:33:32.477Z,0
2017-10-26T01:34:45.249Z,0
2017-10-26T01:35:58.228Z,0
2017-10-26T01:37:10.431Z,0
2017-10-26T01:38:23.717Z,0
2017-10-26T01:39:36.438Z,0
2017-10-26T01:40:49.730Z,0
2017-10-26T01:42:02.958Z,0
2017-10-26T01:43:16.838Z,0
2017-10-26T01:44:29.860Z,0
2017-10-26T01:45:43.869Z,0
2017-10-26T01:46:56.845Z,0
2017-10-26T01:48:10.107Z,0
2017-10-26T01:49:23.320Z,0
2017-10-26T01:50:35.542Z,0
2017-10-26T01:51:48.830Z,0
2017-10-26T01:53:02.049Z,0
2017-10-26T01:54:15.328Z,0
2017-10-26T01:55:27.626Z,0
2017-10-26T01:56:40.980Z,0
2017-10-26T01:57:54.369Z,0
2017-10-26T01:59:07.412Z,0
2017-10-26T02:00:18.558Z,0
2017-10-26T02:01:31.354Z,0
2017-10-26T02:02:44.138Z,0
2017-10-26T02:03:57.397Z,0
2017-10-26T02:05:10.219Z,0
2017-10-26T02:06:23.575Z,0
2017-10-26T02:07:36.355Z,0
2017-10-26T02:08:49.784Z,0
2017-10-26T02:10:03.292Z,0
2017-10-26T02:11:16.394Z,0
2017-10-26T02:12:29.784Z,0
2017-10-26T02:13:42.494Z,0
2017-10-26T02:14:55.217Z,0
2017-10-26T02:16:08.511Z,0
2017-10-26T02:17:21.784Z,0
2017-10-26T02:18:33.988Z,0
2017-10-26T02:19:47.277Z,0
2017-10-26T02:21:00.024Z,0
2017-10-26T02:22:12.781Z,0
2017-10-26T02:23:24.474Z,0
2017-10-26T02:24:37.234Z,0
2017-10-26T02:25:49.947Z,0
2017-10-26T02:27:03.190Z,0
2017-10-26T02:28:16.470Z,0
2017-10-26T02:29:29.208Z,0
2017-10-26T02:30:41.965Z,0
2017-10-26T02:31:55.243Z,0
2017-10-26T02:33:08.001Z,0
2017-10-26T02:34:21.289Z,0
2017-10-26T02:35:34.590Z,0
2017-10-26T02:36:47.853Z,0
2017-10-26T02:38:01.124Z,0
2017-10-26T02:39:13.890Z,0
2017-10-26T02:40:27.349Z,0
2017-10-26T02:41:40.627Z,0
2017-10-26T02:42:53.353Z,0
2017-10-26T02:44:06.568Z,0
2017-10-26T02:45:19.309Z,0
2017-10-26T02:46:32.559Z,0
2017-10-26T02:47:45.327Z,0
2017-10-26T02:48:58.570Z,0
2017-10-26T02:50:11.303Z,0
2017-10-26T02:51:24.087Z,0
2017-10-26T02:52:36.257Z,0
2017-10-26T02:53:49.560Z,0
2017-10-26T02:55:01.874Z,0
2017-10-26T02:56:15.311Z,0
2017-10-26T02:57:28.588Z,0
2017-10-26T02:58:41.388Z,0
2017-10-26T02:59:54.137Z,0
2017-10-26T03:01:06.903Z,0
2017-10-26T03:02:19.688Z,0
2017-10-26T03:03:32.451Z,0
2017-10-26T03:04:44.683Z,0
2017-10-26T03:05:57.924Z,0
2017-10-26T03:07:11.176Z,0
2017-10-26T03:08:24.432Z,0
2017-10-26T03:09:37.660Z,0
2017-10-26T03:10:50.408Z,0
2017-10-26T03:12:03.699Z,0
2017-10-26T03:13:17.030Z,0
2017-10-26T03:14:29.790Z,0
2017-10-26T03:15:43.026Z,0
2017-10-26T03:16:55.252Z,0
2017-10-26T03:18:08.491Z,0
2017-10-26T03:19:20.686Z,0
2017-10-26T03:20:33.941Z,0
2017-10-26T03:21:46.137Z,0
2017-10-26T03:22:58.848Z,0
2017-10-26T03:24:12.141Z,0
2017-10-26T03:25:25.420Z,0
2017-10-26T03:26:38.698Z,0
2017-10-26T03:27:52.036Z,0
2017-10-26T03:29:04.236Z,0
2017-10-26T03:30:18.023Z,0
2017-10-26T03:31:31.337Z,0
2017-10-26T03:32:44.094Z,0
2017-10-26T03:33:57.378Z,0
2017-10-26T03:35:10.643Z,0
2017-10-26T03:36:23.948Z,0
2017-10-26T03:37:37.233Z,0
2017-10-26T03:38:50.501Z,0
2017-10-26T03:40:03.754Z,0
2017-10-26T03:41:16.494Z,0
2017-10-26T03:42:30.478Z,0
2017-10-26T03:43:43.342Z,0
2017-10-26T03:44:55.779Z,0
2017-10-26T03:46:09.107Z,0
2017-10-26T03:47:21.862Z,0
2017-10-26T03:48:35.383Z,0
2017-10-26T03:49:48.663Z,0
2017-10-26T03:51:00.326Z,0
2017-10-26T03:52:13.095Z,0
2017-10-26T03:53:25.884Z,0
2017-10-26T03:54:38.868Z,0
2017-10-26T03:55:51.834Z,0
2017-10-26T03:57:04.616Z,0
2017-10-26T03:58:17.369Z,0
2017-10-26T03:59:29.594Z,0
2017-10-26T04:00:42.847Z,0
2017-10-26T04:01:56.154Z,0
2017-10-26T04:03:09.422Z,0
2017-10-26T04:04:22.717Z,0
2017-10-26T04:05:36.362Z,0
2017-10-26T04:06:49.226Z,0
2017-10-26T04:08:00.896Z,0
2017-10-26T04:09:14.171Z,0
2017-10-26T04:10:26.381Z,0
2017-10-26T04:11:39.648Z,0
2017-10-26T04:12:52.575Z,0
2017-10-26T04:14:05.847Z,0
2017-10-26T04:15:18.611Z,0
2017-10-26T04:16:31.848Z,0
2017-10-26T04:17:44.606Z,0
2017-10-26T04:18:56.820Z,0
2017-10-26T04:20:10.132Z,0
2017-10-26T04:21:22.903Z,0
2017-10-26T04:22:35.650Z,0
2017-10-26T04:23:48.918Z,0
2017-10-26T04:25:02.220Z,0
2017-10-26T04:26:15.504Z,0
2017-10-26T04:27:28.219Z,0
2017-10-26T04:28:40.610Z,0
2017-10-26T04:29:53.317Z,0
2017-10-26T04:31:05.004Z,0
2017-10-26T04:32:18.284Z,0
2017-10-26T04:33:31.007Z,0
2017-10-26T04:34:43.763Z,0
2017-10-26T04:35:57.029Z,0
2017-10-26T04:37:09.244Z,0
2017-10-26T04:38:22.502Z,0
2017-10-26T04:39:35.801Z,0
2017-10-26T04:40:48.506Z,0
2017-10-26T04:42:01.254Z,0
2017-10-26T04:43:14.556Z,0
2017-10-26T04:44:27.322Z,0
2017-10-26T04:45:39.546Z,0
2017-10-26T04:46:52.256Z,0
2017-10-26T04:48:04.459Z,0
2017-10-26T04:49:17.186Z,0
2017-10-26T04:50:30.414Z,0
2017-10-26T04:51:43.923Z,0
2017-10-26T04:52:56.146Z,0
2017-10-26T04:54:09.396Z,0
2017-10-26T04:55:22.142Z,0
2017-10-26T04:56:34.344Z,0
2017-10-26T04:57:47.595Z,0
2017-10-26T04:59:00.362Z,0
2017-10-26T05:00:13.619Z,0
2017-10-26T05:01:26.888Z,0
2017-10-26T05:02:40.146Z,0
2017-10-26T05:03:53.372Z,0
2017-10-26T05:05:05.055Z,0
2017-10-26T05:06:17.814Z,0
2017-10-26T05:07:30.576Z,0
2017-10-26T05:08:43.318Z,0
2017-10-26T05:09:55.517Z,0
2017-10-26T05:11:08.780Z,0
2017-10-26T05:12:21.107Z,0
2017-10-26T05:13:34.364Z,0
2017-10-26T05:14:47.634Z,0
2017-10-26T05:16:00.391Z,0
2017-10-26T05:17:12.573Z,0
2017-10-26T05:18:25.317Z,0
2017-10-26T05:19:38.023Z,0
2017-10-26T05:20:50.742Z,0
2017-10-26T05:22:04.179Z,0
2017-10-26T05:23:16.950Z,0
2017-10-26T05:24:30.243Z,0
2017-10-26T05:25:42.981Z,0
2017-10-26T05:26:56.234Z,0
2017-10-26T05:28:09.524Z,0
2017-10-26T05:29:22.788Z,0
2017-10-26T05:30:36.444Z,0
2017-10-26T05:31:49.224Z,0
2017-10-26T05:33:01.982Z,0
2017-10-26T05:34:15.257Z,0
2017-10-26T05:35:28.525Z,0
2017-10-26T05:36:41.249Z,0
2017-10-26T05:37:54.552Z,0
2017-10-26T05:39:07.819Z,0
2017-10-26T05:40:21.099Z,0
2017-10-26T05:41:34.376Z,0
2017-10-26T05:42:47.633Z,0
2017-10-26T05:43:59.325Z,0
2017-10-26T05:45:11.543Z,0
2017-10-26T05:46:24.800Z,0
2017-10-26T05:47:37.517Z,0
2017-10-26T05:48:50.246Z,0
2017-10-26T05:50:02.449Z,0
2017-10-26T05:51:14.667Z,0
2017-10-26T05:52:26.893Z,0
2017-10-26T05:53:38.035Z,0
2017-10-26T05:54:50.214Z,0
2017-10-26T05:56:02.984Z,0
2017-10-26T05:57:15.698Z,0
2017-10-26T05:58:28.961Z,0
2017-10-26T05:59:42.226Z,0
2017-10-26T06:00:55.486Z,0
2017-10-26T06:02:09.123Z,0
2017-10-26T06:03:22.373Z,0
2017-10-26T06:04:35.103Z,0
2017-10-26T06:05:48.373Z,0
2017-10-26T06:07:00.606Z,0
2017-10-26T06:08:13.888Z,0
2017-10-26T06:09:26.643Z,0
2017-10-26T06:10:39.942Z,0
2017-10-26T06:11:53.219Z,0
2017-10-26T06:13:06.476Z,0
2017-10-26T06:14:19.962Z,0
2017-10-26T06:15:33.215Z,0
2017-10-26T06:16:45.978Z,0
2017-10-26T06:17:58.738Z,0
2017-10-26T06:19:12.024Z,0
2017-10-26T06:20:24.765Z,0
2017-10-26T06:21:38.045Z,0
2017-10-26T06:22:49.701Z,0
2017-10-26T06:24:01.915Z,0
2017-10-26T06:25:14.680Z,0
2017-10-26T06:26:27.399Z,0
2017-10-26T06:27:40.656Z,0
2017-10-26T06:28:53.417Z,0
2017-10-26T06:30:06.144Z,0
2017-10-26T06:31:18.875Z,0
2017-10-26T06:32:31.575Z,0
2017-10-26T06:33:44.336Z,0
2017-10-26T06:34:57.054Z,0
2017-10-26T06:36:09.811Z,0
2017-10-26T06:37:23.093Z,0
2017-10-26T06:38:35.803Z,0
2017-10-26T06:39:47.967Z,0
2017-10-26T06:41:00.718Z,0
2017-10-26T06:42:13.623Z,0
2017-10-26T06:43:26.903Z,0
2017-10-26T06:44:39.655Z,0
2017-10-26T06:45:52.348Z,0
2017-10-26T06:47:05.184Z,0
2017-10-26T06:48:17.908Z,0
2017-10-26T06:49:30.106Z,0
2017-10-26T06:50:43.433Z,0
2017-10-26T06:51:56.172Z,0
2017-10-26T06:53:08.375Z,0
2017-10-26T06:54:21.636Z,0
2017-10-26T06:55:34.341Z,0
2017-10-26T06:56:46.558Z,0
2017-10-26T06:57:58.762Z,0
2017-10-26T06:59:11.506Z,0
2017-10-26T07:00:24.794Z,0
2017-10-26T07:01:37.005Z,0
2017-10-26T07:02:49.755Z,0
2017-10-26T07:04:02.517Z,0
2017-10-26T07:05:15.755Z,0
2017-10-26T07:06:28.508Z,0
2017-10-26T07:07:41.253Z,0
2017-10-26T07:08:53.954Z,0
2017-10-26T07:10:06.169Z,0
2017-10-26T07:11:18.894Z,0
2017-10-26T07:12:31.104Z,0
2017-10-26T07:13:43.866Z,0
2017-10-26T07:14:56.030Z,0
2017-10-26T07:16:07.680Z,0
2017-10-26T07:17:20.966Z,0
2017-10-26T07:18:34.218Z,0
2017-10-26T07:19:46.451Z,0
2017-10-26T07:20:55.510Z,0
2017-10-26T07:22:08.270Z,0
2017-10-26T07:23:21.026Z,0
2017-10-26T07:24:33.764Z,0
2017-10-26T07:25:46.496Z,0
2017-10-26T07:26:59.789Z,0
2017-10-26T07:28:13.057Z,0
2017-10-26T07:29:26.561Z,0
2017-10-26T07:30:39.321Z,0
2017-10-26T07:31:52.576Z,0
2017-10-26T07:33:05.257Z,0
2017-10-26T07:34:17.462Z,0
2017-10-26T07:35:30.186Z,0
2017-10-26T07:36:43.495Z,0
2017-10-26T07:37:56.210Z,0
2017-10-26T07:39:09.492Z,0
2017-10-26T07:40:22.243Z,0
2017-10-26T07:41:35.541Z,0
2017-10-26T07:42:48.797Z,0
2017-10-26T07:44:00.456Z,0
2017-10-26T07:45:13.743Z,0
2017-10-26T07:46:25.436Z,0
2017-10-26T07:47:37.629Z,0
2017-10-26T07:48:50.897Z,0
2017-10-26T07:50:04.139Z,0
2017-10-26T07:51:17.400Z,0
2017-10-26T07:52:30.119Z,0
2017-10-26T07:53:43.386Z,0
2017-10-26T07:54:56.650Z,0
2017-10-26T07:56:08.841Z,0
2017-10-26T07:57:21.592Z,0
2017-10-26T07:58:34.308Z,0
2017-10-26T07:59:47.594Z,0
2017-10-26T08:01:00.346Z,0
2017-10-26T08:02:13.064Z,0
2017-10-26T08:03:25.813Z,0
2017-10-26T08:04:39.073Z,0
2017-10-26T08:05:51.302Z,0
2017-10-26T08:07:34.663Z,0
2017-10-26T08:08:47.900Z,0
2017-10-26T08:10:00.626Z,0
2017-10-26T08:11:13.850Z,0
2017-10-26T08:12:27.094Z,0
2017-10-26T08:13:39.350Z,0
2017-10-26T08:14:52.096Z,0
2017-10-26T08:16:04.832Z,0
2017-10-26T08:17:18.320Z,4
2017-10-26T08:18:31.079Z,4
2017-10-26T08:19:43.279Z,4
2017-10-26T08:20:56.043Z,4
2017-10-26T08:22:08.773Z,4
2017-10-26T08:23:20.979Z,8
2017-10-26T08:24:34.181Z,8
2017-10-26T08:25:46.932Z,8
2017-10-26T08:26:59.712Z,12
2017-10-26T08:28:12.443Z,12
2017-10-26T08:29:25.683Z,16
2017-10-26T08:30:37.873Z,20
2017-10-26T08:31:51.144Z,24
2017-10-26T08:33:04.411Z,36
2017-10-26T08:34:17.670Z,44
2017-10-26T08:35:30.097Z,52
2017-10-26T08:37:13.450Z,64
2017-10-26T08:38:26.291Z,76
2017-10-26T08:39:39.032Z,84
2017-10-26T08:40:52.275Z,100
2017-10-26T08:42:05.538Z,116
2017-10-26T08:43:16.668Z,132
2017-10-26T08:44:28.887Z,140
2017-10-26T08:45:42.121Z,132
2017-10-26T08:46:54.879Z,124
2017-10-26T08:48:07.601Z,136
2017-10-26T08:49:18.755Z,160
2017-10-26T08:50:31.694Z,184
2017-10-26T08:51:43.904Z,208
2017-10-26T08:52:56.623Z,252
2017-10-26T08:54:08.839Z,308
2017-10-26T08:55:21.594Z,408
2017-10-26T08:56:34.536Z,532
2017-10-26T08:57:47.824Z,660
2017-10-26T08:59:00.778Z,816
2017-10-26T09:00:14.041Z,1004
2017-10-26T09:01:58.490Z,1276
2017-10-26T09:03:11.751Z,1460
2017-10-26T09:04:23.958Z,1592
2017-10-26T09:05:36.138Z,1680
2017-10-26T09:06:48.870Z,2000
2017-10-26T09:08:01.065Z,2308
2017-10-26T09:09:14.531Z,2480
2017-10-26T09:10:27.261Z,2620
2017-10-26T09:11:39.990Z,2748
2017-10-26T09:12:52.721Z,2648
2017-10-26T09:14:04.928Z,2636
2017-10-26T09:15:17.689Z,3004
2017-10-26T09:16:30.969Z,3048
2017-10-26T09:17:43.699Z,3048
2017-10-26T09:18:54.836Z,3012
2017-10-26T09:20:08.101Z,3148
2017-10-26T09:21:20.840Z,3260
2017-10-26T09:22:33.599Z,3500
2017-10-26T09:23:46.877Z,3876
2017-10-26T09:25:00.099Z,4168
2017-10-26T09:26:11.805Z,4472
2017-10-26T09:27:24.013Z,4720
2017-10-26T09:28:36.234Z,5020
2017-10-26T09:29:48.445Z,5396
2017-10-26T09:31:00.660Z,5380
2017-10-26T09:32:13.920Z,5464
2017-10-26T09:33:27.211Z,5656
2017-10-26T09:34:39.949Z,5688
2017-10-26T09:35:52.178Z,5660
2017-10-26T09:37:04.941Z,5528
2017-10-26T09:38:17.676Z,5476
2017-10-26T09:39:29.884Z,5596
2017-10-26T09:40:43.172Z,5660
2017-10-26T09:41:56.430Z,5456
2017-10-26T09:43:09.706Z,5256
2017-10-26T09:44:22.989Z,5272
2017-10-26T09:45:36.272Z,5424
2017-10-26T09:46:49.027Z,5500
2017-10-26T09:48:02.290Z,5532
2017-10-26T09:49:15.565Z,5464
2017-10-26T09:50:27.814Z,5496
2017-10-26T09:51:41.099Z,5712
2017-10-26T09:52:54.421Z,5808
2017-10-26T09:54:06.823Z,5816
2017-10-26T09:55:19.574Z,4252
2017-10-26T09:56:32.300Z,4524
2017-10-26T09:57:45.542Z,4360
2017-10-26T09:58:58.858Z,6948
2017-10-26T10:00:11.595Z,8084
2017-10-26T10:01:24.353Z,9180
2017-10-26T10:02:37.615Z,9616
2017-10-26T10:03:49.320Z,9776
2017-10-26T10:05:02.052Z,9784
2017-10-26T10:06:14.236Z,9704
2017-10-26T10:07:26.942Z,9484
2017-10-26T10:08:40.223Z,8924
2017-10-26T10:09:52.981Z,8328
2017-10-26T10:11:05.693Z,7684
2017-10-26T10:12:18.440Z,7032
2017-10-26T10:13:31.164Z,6636
2017-10-26T10:14:44.375Z,6876
2017-10-26T10:15:55.538Z,3068
2017-10-26T10:17:08.251Z,7588
2017-10-26T10:18:20.428Z,7304
2017-10-26T10:19:33.209Z,7284
2017-10-26T10:20:46.139Z,7492
2017-10-26T10:21:58.897Z,7684
2017-10-26T10:23:12.145Z,8088
2017-10-26T10:24:24.858Z,8808
2017-10-26T10:25:37.082Z,9680
2017-10-26T10:26:49.841Z,11008
2017-10-26T10:28:02.565Z,12612
2017-10-26T10:29:15.297Z,13968
2017-10-26T10:30:28.062Z,14824
2017-10-26T10:31:40.781Z,15096
2017-10-26T10:32:54.245Z,14924
2017-10-26T10:34:07.631Z,14792
2017-10-26T10:35:20.336Z,14992
2017-10-26T10:36:33.088Z,15472
2017-10-26T10:37:45.864Z,16008
2017-10-26T10:38:58.066Z,16652
2017-10-26T10:40:11.367Z,17408
2017-10-26T10:41:24.637Z,17920
2017-10-26T10:42:37.943Z,18176
2017-10-26T10:43:50.646Z,18400
2017-10-26T10:45:03.916Z,18912
2017-10-26T10:46:16.126Z,19872
2017-10-26T10:47:28.818Z,20288
2017-10-26T10:48:41.026Z,20000
2017-10-26T10:49:53.257Z,20416
2017-10-26T10:51:05.460Z,21920
2017-10-26T10:52:17.708Z,25984
2017-10-26T10:53:31.003Z,26432
2017-10-26T10:54:43.222Z,29728
2017-10-26T10:55:56.520Z,53664
2017-10-26T10:57:09.263Z,71808
2017-10-26T10:58:22.001Z,65120
2017-10-26T10:59:34.215Z,45056
2017-10-26T11:00:46.965Z,49184
2017-10-26T11:01:59.728Z,77088
2017-10-26T11:03:12.460Z,73856
2017-10-26T11:04:25.715Z,80064
2017-10-26T11:05:38.401Z,85280
2017-10-26T11:06:51.179Z,84928
2017-10-26T11:08:04.463Z,51328
2017-10-26T11:09:17.796Z,89344
2017-10-26T11:10:30.012Z,100288
2017-10-26T11:11:42.735Z,86496
2017-10-26T11:12:55.998Z,72384
2017-10-26T11:14:08.708Z,53152
2017-10-26T11:15:22.019Z,50528
2017-10-26T11:16:34.784Z,110624
2017-10-26T11:17:48.058Z,111776
2017-10-26T11:19:00.767Z,71104
2017-10-26T11:20:12.467Z,88032
2017-10-26T11:21:25.220Z,48000
2017-10-26T11:22:38.488Z,45120
2017-10-26T11:23:51.751Z,47104
2017-10-26T11:25:03.460Z,53088
2017-10-26T11:26:15.766Z,55552
2017-10-26T11:27:28.005Z,62592
2017-10-26T11:28:40.216Z,51360
2017-10-26T11:29:52.956Z,52544
2017-10-26T11:31:05.179Z,44576
2017-10-26T11:32:18.175Z,43808
2017-10-26T11:33:29.847Z,44192
2017-10-26T11:34:42.590Z,45248
2017-10-26T11:35:55.303Z,47904
2017-10-26T11:37:08.044Z,45312
2017-10-26T11:38:20.813Z,43392
2017-10-26T11:39:33.550Z,42144
2017-10-26T11:40:46.829Z,41792
2017-10-26T11:41:59.564Z,41248
2017-10-26T11:43:44.025Z,40896
2017-10-26T11:44:57.294Z,42592
2017-10-26T11:46:10.551Z,44256
2017-10-26T11:47:22.710Z,45056
2017-10-26T11:48:35.468Z,43840
2017-10-26T11:49:47.189Z,41920
2017-10-26T11:51:00.465Z,49568
2017-10-26T11:52:13.722Z,41056
2017-10-26T11:53:27.010Z,81920
2017-10-26T11:54:40.306Z,78880
2017-10-26T11:55:53.593Z,70464
2017-10-26T11:57:05.831Z,46336
2017-10-26T11:58:19.290Z,44224
2017-10-26T11:59:31.705Z,96224
2017-10-26T12:00:43.456Z,90976
2017-10-26T12:01:56.739Z,33696
2017-10-26T12:03:09.211Z,60896
2017-10-26T12:04:20.909Z,93600
2017-10-26T12:05:33.652Z,92768
2017-10-26T12:06:46.455Z,94848
2017-10-26T12:07:58.679Z,87104
2017-10-26T12:09:11.967Z,87168
2017-10-26T12:10:24.748Z,90528
2017-10-26T12:11:37.492Z,89056
2017-10-26T12:12:50.230Z,88896
2017-10-26T12:14:01.909Z,91072
2017-10-26T12:15:14.038Z,97184
2017-10-26T12:16:26.254Z,99008
2017-10-26T12:17:37.987Z,103712
2017-10-26T12:18:50.182Z,107424
2017-10-26T12:20:02.932Z,102944
2017-10-26T12:21:16.202Z,74656
2017-10-26T12:22:28.975Z,42656
2017-10-26T12:23:42.108Z,116032
2017-10-26T12:24:55.519Z,112416
2017-10-26T12:26:08.251Z,113760
2017-10-26T12:27:20.972Z,46592
2017-10-26T12:28:33.741Z,56192
2017-10-26T12:29:47.092Z,51296
2017-10-26T12:31:00.377Z,75104
2017-10-26T12:32:13.143Z,48160
2017-10-26T12:33:26.473Z,110144
2017-10-26T12:34:38.687Z,122912
2017-10-26T12:35:51.410Z,104608
2017-10-26T12:37:03.600Z,116416
2017-10-26T12:38:15.314Z,88064
2017-10-26T12:39:28.263Z,93312
2017-10-26T12:40:41.013Z,91776
2017-10-26T12:41:53.754Z,113952
2017-10-26T12:43:07.045Z,101952
2017-10-26T12:44:20.322Z,114240
2017-10-26T12:45:33.671Z,110656
2017-10-26T12:46:46.416Z,108160
2017-10-26T12:47:59.156Z,112064
2017-10-26T12:49:11.964Z,117632
2017-10-26T12:50:23.654Z,122592
2017-10-26T12:51:36.989Z,129120
2017-10-26T12:52:49.179Z,53600
2017-10-26T12:54:00.830Z,138720
2017-10-26T12:55:14.723Z,133312
2017-10-26T12:56:28.634Z,129472
2017-10-26T12:57:41.927Z,45824
2017-10-26T12:58:54.569Z,42048
2017-10-26T13:00:08.435Z,52128
2017-10-26T13:01:21.720Z,30016
2017-10-26T13:02:33.387Z,28288
2017-10-26T13:03:46.688Z,27616
2017-10-26T13:04:59.450Z,27040
2017-10-26T13:06:11.712Z,26720
2017-10-26T13:07:24.457Z,26496
2017-10-26T13:08:37.800Z,27232
2017-10-26T13:09:51.087Z,28192
2017-10-26T13:11:04.937Z,29952
2017-10-26T13:12:18.227Z,33056
2017-10-26T13:13:30.994Z,34688
2017-10-26T13:14:44.293Z,33504
2017-10-26T13:15:56.522Z,35776
2017-10-26T13:17:09.389Z,58592
2017-10-26T13:18:21.630Z,119360
2017-10-26T13:19:33.834Z,112320
2017-10-26T13:20:45.522Z,98816
2017-10-26T13:21:58.781Z,102656
2017-10-26T13:23:11.513Z,81024
2017-10-26T13:24:24.795Z,120448
2017-10-26T13:25:37.542Z,123520
2017-10-26T13:26:50.302Z,119328
2017-10-26T13:28:02.619Z,121824
2017-10-26T13:29:15.735Z,125952
2017-10-26T13:30:27.453Z,42016
2017-10-26T13:31:39.120Z,120128
2017-10-26T13:32:52.375Z,108704
2017-10-26T13:34:05.140Z,39328
2017-10-26T13:35:17.393Z,33280
2017-10-26T13:36:29.619Z,32096
2017-10-26T13:37:46.432Z,28288
2017-10-26T13:38:59.167Z,24736
2017-10-26T13:40:11.388Z,22176
2017-10-26T13:41:24.674Z,20320
2017-10-26T13:42:37.379Z,20384
2017-10-26T13:43:50.121Z,22560
2017-10-26T13:45:02.898Z,27424
2017-10-26T13:46:15.513Z,32096
2017-10-26T13:47:27.690Z,35648
2017-10-26T13:48:39.923Z,39648
2017-10-26T13:49:53.705Z,40704
2017-10-26T13:51:06.547Z,41216
2017-10-26T13:52:20.523Z,41984
2017-10-26T13:53:34.512Z,55488
2017-10-26T13:54:46.181Z,52896
2017-10-26T13:55:59.016Z,52064
2017-10-26T13:57:13.232Z,55488
2017-10-26T13:58:26.680Z,82304
2017-10-26T13:59:40.085Z,93824
2017-10-26T14:00:52.916Z,87104
2017-10-26T14:02:06.922Z,93024
2017-10-26T14:03:20.301Z,93088
2017-10-26T14:04:35.166Z,114080
2017-10-26T14:05:49.497Z,131712
2017-10-26T14:07:02.329Z,72992
2017-10-26T14:08:16.344Z,58240
2017-10-26T14:09:29.185Z,60736
2017-10-26T14:10:41.987Z,63872
2017-10-26T14:12:26.418Z,62976
2017-10-26T14:13:40.446Z,133408
2017-10-26T14:14:52.811Z,124544
2017-10-26T14:16:04.572Z,130848
2017-10-26T14:17:17.339Z,142400
2017-10-26T14:18:30.609Z,142880
2017-10-26T14:19:42.817Z,140096
2017-10-26T14:20:56.089Z,126560
2017-10-26T14:22:08.307Z,131360
2017-10-26T14:23:20.522Z,133184
2017-10-26T14:24:33.307Z,130400
2017-10-26T14:25:44.999Z,124320
2017-10-26T14:26:57.328Z,123264
2017-10-26T14:28:10.733Z,117216
2017-10-26T14:29:23.021Z,114048
2017-10-26T14:30:35.356Z,107456
2017-10-26T14:31:48.116Z,101440
2017-10-26T14:33:00.865Z,100320
2017-10-26T14:34:14.146Z,99424
2017-10-26T14:35:26.376Z,108960
2017-10-26T14:36:39.736Z,91072
2017-10-26T14:37:53.552Z,82752
2017-10-26T14:39:06.843Z,73920
2017-10-26T14:40:20.095Z,74304
2017-10-26T14:41:32.727Z,73760
2017-10-26T14:42:46.036Z,73952
2017-10-26T14:43:59.419Z,69312
2017-10-26T14:45:12.768Z,67136
2017-10-26T14:46:26.121Z,66272
2017-10-26T14:47:38.851Z,71232
2017-10-26T14:48:50.533Z,75520
2017-10-26T14:50:02.757Z,79616
2017-10-26T14:51:14.967Z,80512
2017-10-26T14:52:28.832Z,84992
2017-10-26T14:53:41.886Z,84800
2017-10-26T14:54:54.654Z,102720
2017-10-26T14:56:07.933Z,105632
2017-10-26T14:57:21.296Z,113664
2017-10-26T14:58:33.558Z,105824
2017-10-26T14:59:46.300Z,76576
2017-10-26T15:00:59.555Z,65632
2017-10-26T15:02:12.356Z,54304
2017-10-26T15:03:25.105Z,51488
2017-10-26T15:04:36.795Z,50688
2017-10-26T15:05:49.544Z,56928
2017-10-26T15:07:02.181Z,57600
2017-10-26T15:08:16.054Z,56736
2017-10-26T15:09:28.855Z,56256
2017-10-26T15:10:41.610Z,56064
2017-10-26T15:11:53.275Z,58272
2017-10-26T15:13:06.556Z,59104
2017-10-26T15:14:19.326Z,57952
2017-10-26T15:15:30.996Z,57088
2017-10-26T15:16:44.304Z,57152
2017-10-26T15:17:57.087Z,58400
2017-10-26T15:19:09.853Z,61280
2017-10-26T15:20:23.121Z,61408
2017-10-26T15:21:36.433Z,59232
2017-10-26T15:22:49.202Z,56576
2017-10-26T15:24:02.452Z,57344
2017-10-26T15:25:15.734Z,56096
2017-10-26T15:26:29.027Z,55712
2017-10-26T15:27:41.374Z,54944
2017-10-26T15:28:54.652Z,63136
2017-10-26T15:30:06.883Z,22112
2017-10-26T15:31:18.252Z,55648
2017-10-26T15:32:30.997Z,49088
2017-10-26T15:33:44.283Z,45824
2017-10-26T15:34:57.010Z,44832
2017-10-26T15:36:09.802Z,45056
2017-10-26T15:37:22.019Z,44096
2017-10-26T15:38:34.747Z,40544
2017-10-26T15:39:48.005Z,37184
2017-10-26T15:41:01.298Z,35136
2017-10-26T15:42:13.010Z,33760
2017-10-26T15:43:25.750Z,32320
2017-10-26T15:44:38.493Z,31520
2017-10-26T15:45:51.285Z,32448
2017-10-26T15:47:04.536Z,34720
2017-10-26T15:48:17.301Z,36896
2017-10-26T15:49:30.618Z,39776
2017-10-26T15:50:43.389Z,54848
2017-10-26T15:51:56.504Z,40448
2017-10-26T15:53:09.238Z,37536
2017-10-26T15:54:22.008Z,35456
2017-10-26T15:55:34.716Z,36288
2017-10-26T15:56:47.484Z,40576
2017-10-26T15:58:00.239Z,53920
2017-10-26T15:59:13.012Z,58304
2017-10-26T16:00:25.806Z,96096
2017-10-26T16:01:38.012Z,65312
2017-10-26T16:02:51.256Z,55040
2017-10-26T16:04:04.576Z,49344
2017-10-26T16:05:17.302Z,49152
2017-10-26T16:06:30.574Z,51488
2017-10-26T16:07:43.345Z,54208
2017-10-26T16:08:56.112Z,61792
2017-10-26T16:10:08.339Z,70912
2017-10-26T16:11:21.108Z,75424
2017-10-26T16:12:33.353Z,65312
2017-10-26T16:13:46.647Z,61408
2017-10-26T16:14:58.874Z,72128
2017-10-26T16:16:11.628Z,59104
2017-10-26T16:17:24.528Z,55680
2017-10-26T16:18:37.985Z,55360
2017-10-26T16:19:51.712Z,56032
2017-10-26T16:21:04.510Z,61888
2017-10-26T16:22:17.987Z,61472
2017-10-26T16:23:30.880Z,59424
2017-10-26T16:24:43.615Z,58240
2017-10-26T16:25:56.913Z,58080
2017-10-26T16:27:08.115Z,59168
2017-10-26T16:28:21.415Z,66560
2017-10-26T16:29:34.714Z,71200
2017-10-26T16:30:47.493Z,93472
2017-10-26T16:32:00.638Z,129856
2017-10-26T16:33:13.545Z,70560
2017-10-26T16:34:26.084Z,66752
2017-10-26T16:35:39.391Z,59616
2017-10-26T16:36:52.610Z,58944
2017-10-26T16:38:05.353Z,56800
2017-10-26T16:39:17.580Z,54368
2017-10-26T16:40:31.093Z,56928
2017-10-26T16:41:44.380Z,51264
2017-10-26T16:42:57.222Z,49344
2017-10-26T16:44:09.664Z,47872
2017-10-26T16:45:23.011Z,46784
2017-10-26T16:46:35.763Z,47392
2017-10-26T16:47:49.080Z,47616
2017-10-26T16:49:02.358Z,47616